Terminal Aerodrome Forecast
Issued by NWS Cleveland, OH

Home | Current Version | Previous Version | Graphics & Text | Print | Product List | Glossary On
Versions: 1 2 3 4 5 6 7 8 9 10 11 12 13 14 15 16 17 18 19 20
000
FTUS41 KCLE 311600 AAA
TAFYNG
TAF AMD
KYNG 311658Z 3117/0112 21008KT P6SM SCT025 BKN150
      TEMPO 3117/3119 BKN025
     FM010700 VRB04KT 6SM -SN OVC035
     FM010900 VRB03KT 3SM -SN OVC012=

USA.gov is the U.S. government's official web portal to all federal, state and local government web resources and services.